sensor_id;sensor_type;location;lat;lon;timestamp;temperature;humidity
22734;DHT22;11534;51.994;5.692;2024-01-10T00:02:03;-3.70;99.90
22734;DHT22;11534;51.994;5.692;2024-01-10T00:04:29;-3.70;99.90
22734;DHT22;11534;51.994;5.692;2024-01-10T00:06:55;-3.70;99.90
22734;DHT22;11534;51.994;5.692;2024-01-10T00:09:20;-3.70;99.90
22734;DHT22;11534;51.994;5.692;2024-01-10T00:11:46;-3.70;99.90
22734;DHT22;11534;51.994;5.692;2024-01-10T00:14:12;-3.70;99.90
22734;DHT22;11534;51.994;5.692;2024-01-10T00:16:37;-3.70;99.90
22734;DHT22;11534;51.994;5.692;2024-01-10T00:19:03;-3.80;99.90
22734;DHT22;11534;51.994;5.692;2024-01-10T00:21:29;-3.80;99.90
22734;DHT22;11534;51.994;5.692;2024-01-10T00:23:54;-3.80;99.90
22734;DHT22;11534;51.994;5.692;2024-01-10T00:26:20;-3.80;99.90
22734;DHT22;11534;51.994;5.692;2024-01-10T00:28:46;-3.80;99.90
22734;DHT22;11534;51.994;5.692;2024-01-10T00:31:12;-3.80;99.90
22734;DHT22;11534;51.994;5.692;2024-01-10T00:33:39;-3.80;99.90
22734;DHT22;11534;51.994;5.692;2024-01-10T00:36:05;-3.80;99.90
22734;DHT22;11534;51.994;5.692;2024-01-10T00:38:31;-3.80;99.90
22734;DHT22;11534;51.994;5.692;2024-01-10T00:40:57;-3.80;99.90
22734;DHT22;11534;51.994;5.692;2024-01-10T00:43:22;-3.80;99.90
22734;DHT22;11534;51.994;5.692;2024-01-10T00:45:48;-3.80;99.90
22734;DHT22;11534;51.994;5.692;2024-01-10T00:48:14;-3.80;99.90
22734;DHT22;11534;51.994;5.692;2024-01-10T00:50:39;-3.80;99.90
22734;DHT22;11534;51.994;5.692;2024-01-10T00:53:05;-3.80;99.90
22734;DHT22;11534;51.994;5.692;2024-01-10T00:55:31;-3.80;99.90
22734;DHT22;11534;51.994;5.692;2024-01-10T00:57:56;-3.80;99.90
22734;DHT22;11534;51.994;5.692;2024-01-10T01:00:22;-3.90;99.90
22734;DHT22;11534;51.994;5.692;2024-01-10T01:02:47;-3.90;99.90
22734;DHT22;11534;51.994;5.692;2024-01-10T01:05:13;-3.90;99.90
22734;DHT22;11534;51.994;5.692;2024-01-10T01:07:39;-4.00;99.90
22734;DHT22;11534;51.994;5.692;2024-01-10T01:10:05;-3.90;99.90
22734;DHT22;11534;51.994;5.692;2024-01-10T01:12:31;-3.90;99.90
22734;DHT22;11534;51.994;5.692;2024-01-10T01:14:57;-3.90;99.90
22734;DHT22;11534;51.994;5.692;2024-01-10T01:17:22;-4.00;99.90
22734;DHT22;11534;51.994;5.692;2024-01-10T01:19:48;-4.00;99.90
22734;DHT22;11534;51.994;5.692;2024-01-10T01:22:14;-4.00;99.90
22734;DHT22;11534;51.994;5.692;2024-01-10T01:24:39;-4.00;99.90
22734;DHT22;11534;51.994;5.692;2024-01-10T01:27:05;-4.00;99.90
22734;DHT22;11534;51.994;5.692;2024-01-10T01:29:31;-4.10;99.90
22734;DHT22;11534;51.994;5.692;2024-01-10T01:31:58;-4.10;99.90
22734;DHT22;11534;51.994;5.692;2024-01-10T01:34:23;-4.10;99.90
22734;DHT22;11534;51.994;5.692;2024-01-10T01:36:49;-4.10;99.90
22734;DHT22;11534;51.994;5.692;2024-01-10T01:39:17;-4.10;99.90
22734;DHT22;11534;51.994;5.692;2024-01-10T01:41:43;-4.00;99.90
22734;DHT22;11534;51.994;5.692;2024-01-10T01:44:09;-4.10;99.90
22734;DHT22;11534;51.994;5.692;2024-01-10T01:46:35;-4.10;99.90
22734;DHT22;11534;51.994;5.692;2024-01-10T01:49:00;-4.20;99.90
22734;DHT22;11534;51.994;5.692;2024-01-10T01:51:28;-4.20;99.90
22734;DHT22;11534;51.994;5.692;2024-01-10T01:53:54;-4.10;99.90
22734;DHT22;11534;51.994;5.692;2024-01-10T01:56:21;-4.20;99.90
22734;DHT22;11534;51.994;5.692;2024-01-10T01:58:48;-4.20;99.90
22734;DHT22;11534;51.994;5.692;2024-01-10T02:01:16;-4.20;99.90
22734;DHT22;11534;51.994;5.692;2024-01-10T02:03:42;-4.20;99.90
22734;DHT22;11534;51.994;5.692;2024-01-10T02:06:08;-4.20;99.90
22734;DHT22;11534;51.994;5.692;2024-01-10T02:08:35;-4.20;99.90
22734;DHT22;11534;51.994;5.692;2024-01-10T02:11:02;-4.20;99.90
22734;DHT22;11534;51.994;5.692;2024-01-10T02:13:29;-4.10;99.90
22734;DHT22;11534;51.994;5.692;2024-01-10T02:15:56;-4.20;99.90
22734;DHT22;11534;51.994;5.692;2024-01-10T02:18:22;-4.20;99.90
22734;DHT22;11534;51.994;5.692;2024-01-10T02:20:48;-4.20;99.90
22734;DHT22;11534;51.994;5.692;2024-01-10T02:23:13;-4.10;99.90
22734;DHT22;11534;51.994;5.692;2024-01-10T02:25:40;-4.10;99.90
22734;DHT22;11534;51.994;5.692;2024-01-10T02:28:06;-4.10;99.90
22734;DHT22;11534;51.994;5.692;2024-01-10T02:30:33;-4.10;99.90
22734;DHT22;11534;51.994;5.692;2024-01-10T02:32:58;-4.10;99.90
22734;DHT22;11534;51.994;5.692;2024-01-10T02:35:24;-4.20;99.90
22734;DHT22;11534;51.994;5.692;2024-01-10T02:37:51;-4.20;99.90
22734;DHT22;11534;51.994;5.692;2024-01-10T02:40:17;-4.20;99.90
22734;DHT22;11534;51.994;5.692;2024-01-10T02:42:43;-4.20;99.90
22734;DHT22;11534;51.994;5.692;2024-01-10T02:45:11;-4.20;99.90
22734;DHT22;11534;51.994;5.692;2024-01-10T02:47:37;-4.20;99.90
22734;DHT22;11534;51.994;5.692;2024-01-10T02:50:05;-4.20;99.90
22734;DHT22;11534;51.994;5.692;2024-01-10T02:52:31;-4.20;99.90
22734;DHT22;11534;51.994;5.692;2024-01-10T02:54:56;-4.20;99.90
22734;DHT22;11534;51.994;5.692;2024-01-10T02:57:22;-4.20;99.90
22734;DHT22;11534;51.994;5.692;2024-01-10T02:59:48;-4.20;99.90
22734;DHT22;11534;51.994;5.692;2024-01-10T03:02:13;-4.20;99.90
22734;DHT22;11534;51.994;5.692;2024-01-10T03:04:43;-4.20;99.90
22734;DHT22;11534;51.994;5.692;2024-01-10T03:07:10;-4.20;99.90
22734;DHT22;11534;51.994;5.692;2024-01-10T03:09:35;-4.20;99.90
22734;DHT22;11534;51.994;5.692;2024-01-10T03:12:01;-4.20;99.90
22734;DHT22;11534;51.994;5.692;2024-01-10T03:14:27;-4.20;99.90
22734;DHT22;11534;51.994;5.692;2024-01-10T03:16:52;-4.20;99.90
22734;DHT22;11534;51.994;5.692;2024-01-10T03:19:18;-4.20;99.90
22734;DHT22;11534;51.994;5.692;2024-01-10T03:21:44;-4.20;99.90
22734;DHT22;11534;51.994;5.692;2024-01-10T03:24:10;-4.20;99.90
22734;DHT22;11534;51.994;5.692;2024-01-10T03:26:35;-4.30;99.90
22734;DHT22;11534;51.994;5.692;2024-01-10T03:29:01;-4.30;99.90
22734;DHT22;11534;51.994;5.692;2024-01-10T03:31:29;-4.30;99.90
22734;DHT22;11534;51.994;5.692;2024-01-10T03:33:58;-4.40;99.90
22734;DHT22;11534;51.994;5.692;2024-01-10T03:36:24;-4.40;99.90
22734;DHT22;11534;51.994;5.692;2024-01-10T03:38:50;-4.40;99.90
22734;DHT22;11534;51.994;5.692;2024-01-10T03:41:17;-4.40;99.90
22734;DHT22;11534;51.994;5.692;2024-01-10T03:43:43;-4.40;99.90
22734;DHT22;11534;51.994;5.692;2024-01-10T03:46:10;-4.50;99.90
22734;DHT22;11534;51.994;5.692;2024-01-10T03:48:35;-4.50;99.90
22734;DHT22;11534;51.994;5.692;2024-01-10T03:51:03;-4.50;99.90
22734;DHT22;11534;51.994;5.692;2024-01-10T03:53:30;-4.50;99.90
22734;DHT22;11534;51.994;5.692;2024-01-10T03:55:56;-4.50;99.90
22734;DHT22;11534;51.994;5.692;2024-01-10T03:58:22;-4.60;99.90
22734;DHT22;11534;51.994;5.692;2024-01-10T04:00:47;-4.60;99.90
22734;DHT22;11534;51.994;5.692;2024-01-10T04:03:13;-4.60;99.90
22734;DHT22;11534;51.994;5.692;2024-01-10T04:05:38;-4.60;99.90
22734;DHT22;11534;51.994;5.692;2024-01-10T04:08:04;-4.60;99.90
22734;DHT22;11534;51.994;5.692;2024-01-10T04:10:30;-4.60;99.90
22734;DHT22;11534;51.994;5.692;2024-01-10T04:12:56;-4.60;99.90
22734;DHT22;11534;51.994;5.692;2024-01-10T04:15:21;-4.60;99.90
22734;DHT22;11534;51.994;5.692;2024-01-10T04:17:48;-4.70;99.90
22734;DHT22;11534;51.994;5.692;2024-01-10T04:20:13;-4.70;99.90
22734;DHT22;11534;51.994;5.692;2024-01-10T04:22:40;-4.70;99.90
22734;DHT22;11534;51.994;5.692;2024-01-10T04:25:07;-4.60;99.90
22734;DHT22;11534;51.994;5.692;2024-01-10T04:27:33;-4.60;99.90
22734;DHT22;11534;51.994;5.692;2024-01-10T04:29:59;-4.60;99.90
22734;DHT22;11534;51.994;5.692;2024-01-10T04:32:24;-4.70;99.90
22734;DHT22;11534;51.994;5.692;2024-01-10T04:34:50;-4.60;99.90
22734;DHT22;11534;51.994;5.692;2024-01-10T04:37:16;-4.70;99.90
22734;DHT22;11534;51.994;5.692;2024-01-10T04:39:42;-4.70;99.90
22734;DHT22;11534;51.994;5.692;2024-01-10T04:42:12;-4.60;99.90
22734;DHT22;11534;51.994;5.692;2024-01-10T04:44:39;-4.70;99.90
22734;DHT22;11534;51.994;5.692;2024-01-10T04:47:06;-4.70;99.90
22734;DHT22;11534;51.994;5.692;2024-01-10T04:49:33;-4.70;99.90
22734;DHT22;11534;51.994;5.692;2024-01-10T04:51:59;-4.70;99.90
22734;DHT22;11534;51.994;5.692;2024-01-10T04:54:25;-4.80;99.90
22734;DHT22;11534;51.994;5.692;2024-01-10T04:56:51;-4.80;99.90
22734;DHT22;11534;51.994;5.692;2024-01-10T04:59:17;-4.80;99.90
22734;DHT22;11534;51.994;5.692;2024-01-10T05:01:42;-4.80;99.90
22734;DHT22;11534;51.994;5.692;2024-01-10T05:04:08;-4.80;99.90
22734;DHT22;11534;51.994;5.692;2024-01-10T05:06:33;-4.80;99.90
22734;DHT22;11534;51.994;5.692;2024-01-10T05:09:00;-4.80;99.90
22734;DHT22;11534;51.994;5.692;2024-01-10T05:11:26;-4.80;99.90
22734;DHT22;11534;51.994;5.692;2024-01-10T05:13:52;-4.80;99.90
22734;DHT22;11534;51.994;5.692;2024-01-10T05:16:18;-4.70;99.90
22734;DHT22;11534;51.994;5.692;2024-01-10T05:18:44;-4.70;99.90
22734;DHT22;11534;51.994;5.692;2024-01-10T05:21:09;-4.80;99.90
22734;DHT22;11534;51.994;5.692;2024-01-10T05:23:35;-4.80;99.90
22734;DHT22;11534;51.994;5.692;2024-01-10T05:26:04;-4.80;99.90
22734;DHT22;11534;51.994;5.692;2024-01-10T05:28:29;-4.80;99.90
22734;DHT22;11534;51.994;5.692;2024-01-10T05:30:55;-4.80;99.90
22734;DHT22;11534;51.994;5.692;2024-01-10T05:33:21;-4.80;99.90
22734;DHT22;11534;51.994;5.692;2024-01-10T05:35:48;-4.80;99.90
22734;DHT22;11534;51.994;5.692;2024-01-10T05:38:15;-4.80;99.90
22734;DHT22;11534;51.994;5.692;2024-01-10T05:40:40;-4.80;99.90
22734;DHT22;11534;51.994;5.692;2024-01-10T05:43:07;-4.80;99.90
22734;DHT22;11534;51.994;5.692;2024-01-10T05:45:33;-4.80;99.90
22734;DHT22;11534;51.994;5.692;2024-01-10T05:47:59;-4.80;99.90
22734;DHT22;11534;51.994;5.692;2024-01-10T05:50:25;-4.90;99.90
22734;DHT22;11534;51.994;5.692;2024-01-10T05:52:51;-4.80;99.90
22734;DHT22;11534;51.994;5.692;2024-01-10T05:55:18;-4.80;99.90
22734;DHT22;11534;51.994;5.692;2024-01-10T05:57:44;-4.90;99.90
22734;DHT22;11534;51.994;5.692;2024-01-10T06:00:10;-4.80;99.90
22734;DHT22;11534;51.994;5.692;2024-01-10T06:02:37;-4.80;99.90
22734;DHT22;11534;51.994;5.692;2024-01-10T06:05:07;-4.80;99.90
22734;DHT22;11534;51.994;5.692;2024-01-10T06:07:32;-4.90;99.90
22734;DHT22;11534;51.994;5.692;2024-01-10T06:09:58;-4.80;99.90
22734;DHT22;11534;51.994;5.692;2024-01-10T06:12:24;-4.80;99.90
22734;DHT22;11534;51.994;5.692;2024-01-10T06:14:50;-4.80;99.90
22734;DHT22;11534;51.994;5.692;2024-01-10T06:17:16;-4.80;99.90
22734;DHT22;11534;51.994;5.692;2024-01-10T06:19:42;-4.90;99.90
22734;DHT22;11534;51.994;5.692;2024-01-10T06:22:07;-4.90;99.90
22734;DHT22;11534;51.994;5.692;2024-01-10T06:24:33;-5.00;99.90
22734;DHT22;11534;51.994;5.692;2024-01-10T06:26:58;-4.80;99.90
22734;DHT22;11534;51.994;5.692;2024-01-10T06:29:24;-5.00;99.90
22734;DHT22;11534;51.994;5.692;2024-01-10T06:31:50;-4.90;99.90
22734;DHT22;11534;51.994;5.692;2024-01-10T06:34:16;-5.00;99.90
22734;DHT22;11534;51.994;5.692;2024-01-10T06:36:42;-5.00;99.90
22734;DHT22;11534;51.994;5.692;2024-01-10T06:39:10;-5.00;99.90
22734;DHT22;11534;51.994;5.692;2024-01-10T06:41:38;-5.00;99.90
22734;DHT22;11534;51.994;5.692;2024-01-10T06:44:04;-5.00;99.90
22734;DHT22;11534;51.994;5.692;2024-01-10T06:46:31;-5.00;99.90
22734;DHT22;11534;51.994;5.692;2024-01-10T06:48:57;-5.00;99.90
22734;DHT22;11534;51.994;5.692;2024-01-10T06:51:24;-5.00;99.90
22734;DHT22;11534;51.994;5.692;2024-01-10T06:53:50;-5.00;99.90
22734;DHT22;11534;51.994;5.692;2024-01-10T06:56:16;-5.00;99.90
22734;DHT22;11534;51.994;5.692;2024-01-10T06:58:41;-5.00;99.90
22734;DHT22;11534;51.994;5.692;2024-01-10T07:01:14;-5.00;99.90
22734;DHT22;11534;51.994;5.692;2024-01-10T07:03:40;-5.00;99.90
22734;DHT22;11534;51.994;5.692;2024-01-10T07:06:07;-5.00;99.90
22734;DHT22;11534;51.994;5.692;2024-01-10T07:08:33;-5.00;99.90
22734;DHT22;11534;51.994;5.692;2024-01-10T07:10:58;-5.00;99.90
22734;DHT22;11534;51.994;5.692;2024-01-10T07:13:24;-5.00;99.90
22734;DHT22;11534;51.994;5.692;2024-01-10T07:15:50;-5.00;99.90
22734;DHT22;11534;51.994;5.692;2024-01-10T07:18:18;-4.90;99.90
22734;DHT22;11534;51.994;5.692;2024-01-10T07:20:44;-5.00;99.90
22734;DHT22;11534;51.994;5.692;2024-01-10T07:23:10;-5.00;99.90
22734;DHT22;11534;51.994;5.692;2024-01-10T07:25:35;-5.00;99.90
22734;DHT22;11534;51.994;5.692;2024-01-10T07:28:02;-5.00;99.90
22734;DHT22;11534;51.994;5.692;2024-01-10T07:30:28;-5.00;99.90
22734;DHT22;11534;51.994;5.692;2024-01-10T07:32:58;-5.10;99.90
22734;DHT22;11534;51.994;5.692;2024-01-10T07:35:24;-5.00;99.90
22734;DHT22;11534;51.994;5.692;2024-01-10T07:37:51;-5.10;99.90
22734;DHT22;11534;51.994;5.692;2024-01-10T07:40:21;-5.10;99.90
22734;DHT22;11534;51.994;5.692;2024-01-10T07:42:48;-5.00;99.90
22734;DHT22;11534;51.994;5.692;2024-01-10T07:45:14;-5.00;99.90
22734;DHT22;11534;51.994;5.692;2024-01-10T07:47:39;-5.00;99.90
22734;DHT22;11534;51.994;5.692;2024-01-10T07:50:09;-5.00;99.90
22734;DHT22;11534;51.994;5.692;2024-01-10T07:52:36;-5.00;99.90
22734;DHT22;11534;51.994;5.692;2024-01-10T07:55:02;-5.00;99.90
22734;DHT22;11534;51.994;5.692;2024-01-10T07:57:35;-5.00;99.90
22734;DHT22;11534;51.994;5.692;2024-01-10T08:00:03;-5.00;99.90
22734;DHT22;11534;51.994;5.692;2024-01-10T08:02:29;-5.00;99.90
22734;DHT22;11534;51.994;5.692;2024-01-10T08:05:00;-5.00;99.90
22734;DHT22;11534;51.994;5.692;2024-01-10T08:07:25;-5.00;99.90
22734;DHT22;11534;51.994;5.692;2024-01-10T08:09:51;-5.00;99.90
22734;DHT22;11534;51.994;5.692;2024-01-10T08:12:18;-5.00;99.90
22734;DHT22;11534;51.994;5.692;2024-01-10T08:14:44;-5.00;99.90
22734;DHT22;11534;51.994;5.692;2024-01-10T08:17:16;-5.00;99.90
22734;DHT22;11534;51.994;5.692;2024-01-10T08:19:42;-5.00;99.90
22734;DHT22;11534;51.994;5.692;2024-01-10T08:22:08;-5.00;99.90
22734;DHT22;11534;51.994;5.692;2024-01-10T08:24:34;-5.00;99.90
22734;DHT22;11534;51.994;5.692;2024-01-10T08:27:00;-5.00;99.90
22734;DHT22;11534;51.994;5.692;2024-01-10T08:29:29;-4.90;99.90
22734;DHT22;11534;51.994;5.692;2024-01-10T08:31:57;-4.90;99.90
22734;DHT22;11534;51.994;5.692;2024-01-10T08:34:23;-4.90;99.90
22734;DHT22;11534;51.994;5.692;2024-01-10T08:36:51;-4.90;99.90
22734;DHT22;11534;51.994;5.692;2024-01-10T08:39:17;-4.80;99.90
22734;DHT22;11534;51.994;5.692;2024-01-10T08:41:43;-4.80;99.90
22734;DHT22;11534;51.994;5.692;2024-01-10T08:44:13;-4.80;99.90
22734;DHT22;11534;51.994;5.692;2024-01-10T08:46:41;-4.80;99.90
22734;DHT22;11534;51.994;5.692;2024-01-10T08:49:07;-4.80;99.90
22734;DHT22;11534;51.994;5.692;2024-01-10T08:51:34;-4.70;99.90
22734;DHT22;11534;51.994;5.692;2024-01-10T08:54:00;-4.70;99.90
22734;DHT22;11534;51.994;5.692;2024-01-10T08:56:27;-4.60;99.90
22734;DHT22;11534;51.994;5.692;2024-01-10T08:58:53;-4.60;99.90
22734;DHT22;11534;51.994;5.692;2024-01-10T09:01:18;-4.50;99.90
22734;DHT22;11534;51.994;5.692;2024-01-10T09:03:45;-4.50;99.90
22734;DHT22;11534;51.994;5.692;2024-01-10T09:06:11;-4.40;99.90
22734;DHT22;11534;51.994;5.692;2024-01-10T09:08:37;-4.40;99.90
22734;DHT22;11534;51.994;5.692;2024-01-10T09:11:03;-4.40;99.90
22734;DHT22;11534;51.994;5.692;2024-01-10T09:13:29;-4.30;99.90
22734;DHT22;11534;51.994;5.692;2024-01-10T09:15:56;-4.30;99.90
22734;DHT22;11534;51.994;5.692;2024-01-10T09:18:22;-4.20;99.90
22734;DHT22;11534;51.994;5.692;2024-01-10T09:20:48;-4.20;99.90
22734;DHT22;11534;51.994;5.692;2024-01-10T09:23:15;-4.20;99.90
22734;DHT22;11534;51.994;5.692;2024-01-10T09:25:41;-4.20;99.90
22734;DHT22;11534;51.994;5.692;2024-01-10T09:28:06;-4.10;99.90
22734;DHT22;11534;51.994;5.692;2024-01-10T09:30:34;-4.00;99.90
22734;DHT22;11534;51.994;5.692;2024-01-10T09:33:00;-3.90;99.90
22734;DHT22;11534;51.994;5.692;2024-01-10T09:35:26;-3.80;99.90
22734;DHT22;11534;51.994;5.692;2024-01-10T09:37:52;-3.80;99.90
22734;DHT22;11534;51.994;5.692;2024-01-10T09:40:19;-3.80;99.90
22734;DHT22;11534;51.994;5.692;2024-01-10T09:42:49;-3.70;99.90
22734;DHT22;11534;51.994;5.692;2024-01-10T09:45:17;-3.70;99.90
22734;DHT22;11534;51.994;5.692;2024-01-10T09:47:48;-3.60;99.90
22734;DHT22;11534;51.994;5.692;2024-01-10T09:50:15;-3.50;99.90
22734;DHT22;11534;51.994;5.692;2024-01-10T09:52:51;-3.40;99.90
22734;DHT22;11534;51.994;5.692;2024-01-10T09:55:21;-3.30;99.90
22734;DHT22;11534;51.994;5.692;2024-01-10T09:57:49;-3.30;99.90
22734;DHT22;11534;51.994;5.692;2024-01-10T10:00:16;-3.20;99.90
22734;DHT22;11534;51.994;5.692;2024-01-10T10:02:43;-3.10;99.90
22734;DHT22;11534;51.994;5.692;2024-01-10T10:05:15;-3.00;99.90
22734;DHT22;11534;51.994;5.692;2024-01-10T10:07:49;-2.90;99.90
22734;DHT22;11534;51.994;5.692;2024-01-10T10:10:16;-2.70;99.90
22734;DHT22;11534;51.994;5.692;2024-01-10T10:12:51;-2.60;99.90
22734;DHT22;11534;51.994;5.692;2024-01-10T10:15:23;-2.50;99.90
22734;DHT22;11534;51.994;5.692;2024-01-10T10:17:49;-2.30;99.90
22734;DHT22;11534;51.994;5.692;2024-01-10T10:20:29;-2.20;99.90
22734;DHT22;11534;51.994;5.692;2024-01-10T10:23:06;-2.00;99.90
22734;DHT22;11534;51.994;5.692;2024-01-10T10:25:38;-1.90;99.90
22734;DHT22;11534;51.994;5.692;2024-01-10T10:28:08;-1.80;99.90
22734;DHT22;11534;51.994;5.692;2024-01-10T10:30:34;-1.60;99.90
22734;DHT22;11534;51.994;5.692;2024-01-10T10:33:00;-1.50;99.90
22734;DHT22;11534;51.994;5.692;2024-01-10T10:35:26;-1.40;99.90
22734;DHT22;11534;51.994;5.692;2024-01-10T10:37:53;-1.20;99.90
22734;DHT22;11534;51.994;5.692;2024-01-10T10:40:21;-1.10;99.90
22734;DHT22;11534;51.994;5.692;2024-01-10T10:42:48;-1.00;99.90
22734;DHT22;11534;51.994;5.692;2024-01-10T10:45:18;-0.90;99.90
22734;DHT22;11534;51.994;5.692;2024-01-10T10:47:48;-0.80;99.90
22734;DHT22;11534;51.994;5.692;2024-01-10T10:50:26;-0.70;99.90
22734;DHT22;11534;51.994;5.692;2024-01-10T10:52:55;-0.50;99.90
22734;DHT22;11534;51.994;5.692;2024-01-10T10:55:22;-0.30;99.90
22734;DHT22;11534;51.994;5.692;2024-01-10T10:57:52;-0.10;99.90
22734;DHT22;11534;51.994;5.692;2024-01-10T11:00:20;0.20;99.90
22734;DHT22;11534;51.994;5.692;2024-01-10T11:02:53;0.40;99.90
22734;DHT22;11534;51.994;5.692;2024-01-10T11:05:20;0.60;99.90
22734;DHT22;11534;51.994;5.692;2024-01-10T11:07:47;0.70;99.90
22734;DHT22;11534;51.994;5.692;2024-01-10T11:10:16;0.80;99.90
22734;DHT22;11534;51.994;5.692;2024-01-10T11:23:48;1.10;99.90
22734;DHT22;11534;51.994;5.692;2024-01-10T11:26:15;1.10;99.90
22734;DHT22;11534;51.994;5.692;2024-01-10T11:28:42;1.00;99.90
22734;DHT22;11534;51.994;5.692;2024-01-10T11:31:08;0.80;99.90
22734;DHT22;11534;51.994;5.692;2024-01-10T11:33:36;0.90;99.90
22734;DHT22;11534;51.994;5.692;2024-01-10T11:36:14;0.90;99.90
22734;DHT22;11534;51.994;5.692;2024-01-10T11:41:12;0.70;99.90
22734;DHT22;11534;51.994;5.692;2024-01-10T11:43:38;0.70;99.90
22734;DHT22;11534;51.994;5.692;2024-01-10T11:46:05;0.70;99.90
22734;DHT22;11534;51.994;5.692;2024-01-10T11:48:37;0.80;99.90
22734;DHT22;11534;51.994;5.692;2024-01-10T11:51:04;0.70;99.90
22734;DHT22;11534;51.994;5.692;2024-01-10T11:53:39;0.90;99.90
22734;DHT22;11534;51.994;5.692;2024-01-10T11:56:15;0.90;99.90
22734;DHT22;11534;51.994;5.692;2024-01-10T11:59:00;0.90;99.90
22734;DHT22;11534;51.994;5.692;2024-01-10T12:01:27;0.90;99.90
22734;DHT22;11534;51.994;5.692;2024-01-10T12:03:53;0.90;99.90
22734;DHT22;11534;51.994;5.692;2024-01-10T12:06:21;1.00;99.90
22734;DHT22;11534;51.994;5.692;2024-01-10T12:08:47;1.10;99.90
22734;DHT22;11534;51.994;5.692;2024-01-10T12:11:13;1.00;99.90
22734;DHT22;11534;51.994;5.692;2024-01-10T12:13:41;0.90;99.90
22734;DHT22;11534;51.994;5.692;2024-01-10T12:16:07;1.00;99.90
22734;DHT22;11534;51.994;5.692;2024-01-10T12:18:33;0.80;99.90
22734;DHT22;11534;51.994;5.692;2024-01-10T12:21:00;0.80;99.90
22734;DHT22;11534;51.994;5.692;2024-01-10T12:23:26;0.70;99.90
22734;DHT22;11534;51.994;5.692;2024-01-10T12:26:05;0.80;99.90
22734;DHT22;11534;51.994;5.692;2024-01-10T12:28:34;0.80;99.90
22734;DHT22;11534;51.994;5.692;2024-01-10T12:31:00;0.80;99.90
22734;DHT22;11534;51.994;5.692;2024-01-10T12:33:25;0.80;99.90
22734;DHT22;11534;51.994;5.692;2024-01-10T12:36:08;0.70;99.90
22734;DHT22;11534;51.994;5.692;2024-01-10T12:38:40;0.80;99.90
22734;DHT22;11534;51.994;5.692;2024-01-10T12:41:06;0.80;99.90
22734;DHT22;11534;51.994;5.692;2024-01-10T12:43:35;0.90;99.90
22734;DHT22;11534;51.994;5.692;2024-01-10T12:46:04;1.00;99.90
22734;DHT22;11534;51.994;5.692;2024-01-10T12:48:30;1.00;99.90
22734;DHT22;11534;51.994;5.692;2024-01-10T12:50:57;1.10;99.90
22734;DHT22;11534;51.994;5.692;2024-01-10T12:53:27;1.10;99.90
22734;DHT22;11534;51.994;5.692;2024-01-10T12:55:54;1.10;99.90
22734;DHT22;11534;51.994;5.692;2024-01-10T12:58:20;1.10;99.90
22734;DHT22;11534;51.994;5.692;2024-01-10T13:00:46;1.20;99.90
22734;DHT22;11534;51.994;5.692;2024-01-10T13:03:11;1.30;99.90
22734;DHT22;11534;51.994;5.692;2024-01-10T13:05:37;1.20;99.90
22734;DHT22;11534;51.994;5.692;2024-01-10T13:08:03;1.00;99.90
22734;DHT22;11534;51.994;5.692;2024-01-10T13:10:31;0.90;99.90
22734;DHT22;11534;51.994;5.692;2024-01-10T13:12:56;0.80;99.90
22734;DHT22;11534;51.994;5.692;2024-01-10T13:15:22;0.70;99.90
22734;DHT22;11534;51.994;5.692;2024-01-10T13:17:48;0.60;99.90
22734;DHT22;11534;51.994;5.692;2024-01-10T13:20:14;0.50;99.90
22734;DHT22;11534;51.994;5.692;2024-01-10T13:22:40;0.50;99.90
22734;DHT22;11534;51.994;5.692;2024-01-10T13:25:06;0.50;99.90
22734;DHT22;11534;51.994;5.692;2024-01-10T13:27:32;0.40;99.90
22734;DHT22;11534;51.994;5.692;2024-01-10T13:29:58;0.30;99.90
22734;DHT22;11534;51.994;5.692;2024-01-10T13:32:23;0.30;99.90
22734;DHT22;11534;51.994;5.692;2024-01-10T13:34:51;0.30;99.90
22734;DHT22;11534;51.994;5.692;2024-01-10T13:37:16;0.30;99.90
22734;DHT22;11534;51.994;5.692;2024-01-10T13:39:42;0.30;99.90
22734;DHT22;11534;51.994;5.692;2024-01-10T13:42:08;0.20;99.90
22734;DHT22;11534;51.994;5.692;2024-01-10T13:44:36;0.30;99.90
22734;DHT22;11534;51.994;5.692;2024-01-10T13:47:01;0.30;99.90
22734;DHT22;11534;51.994;5.692;2024-01-10T13:49:29;0.20;99.90
22734;DHT22;11534;51.994;5.692;2024-01-10T13:51:55;0.30;99.90
22734;DHT22;11534;51.994;5.692;2024-01-10T13:59:32;0.30;99.90
22734;DHT22;11534;51.994;5.692;2024-01-10T14:02:00;0.20;99.90
22734;DHT22;11534;51.994;5.692;2024-01-10T14:04:26;0.20;99.90
22734;DHT22;11534;51.994;5.692;2024-01-10T14:06:51;0.20;99.90
22734;DHT22;11534;51.994;5.692;2024-01-10T14:09:18;0.20;99.90
22734;DHT22;11534;51.994;5.692;2024-01-10T14:11:44;0.10;99.90
22734;DHT22;11534;51.994;5.692;2024-01-10T14:14:10;0.10;99.90
22734;DHT22;11534;51.994;5.692;2024-01-10T14:16:36;0.10;99.90
22734;DHT22;11534;51.994;5.692;2024-01-10T14:19:02;0.10;99.90
22734;DHT22;11534;51.994;5.692;2024-01-10T14:21:28;0.10;99.90
22734;DHT22;11534;51.994;5.692;2024-01-10T14:23:55;0.10;99.90
22734;DHT22;11534;51.994;5.692;2024-01-10T14:26:25;0.10;99.90
22734;DHT22;11534;51.994;5.692;2024-01-10T14:28:52;0.10;99.90
22734;DHT22;11534;51.994;5.692;2024-01-10T14:31:21;0.10;99.90
22734;DHT22;11534;51.994;5.692;2024-01-10T14:33:47;0.20;99.90
22734;DHT22;11534;51.994;5.692;2024-01-10T14:36:13;0.10;99.90
22734;DHT22;11534;51.994;5.692;2024-01-10T14:38:39;0.00;99.90
22734;DHT22;11534;51.994;5.692;2024-01-10T14:41:06;0.10;99.90
22734;DHT22;11534;51.994;5.692;2024-01-10T14:43:32;0.00;99.90
22734;DHT22;11534;51.994;5.692;2024-01-10T14:45:58;0.00;99.90
22734;DHT22;11534;51.994;5.692;2024-01-10T14:48:29;0.00;99.90
22734;DHT22;11534;51.994;5.692;2024-01-10T14:50:55;-0.10;99.90
22734;DHT22;11534;51.994;5.692;2024-01-10T14:53:21;-0.10;99.90
22734;DHT22;11534;51.994;5.692;2024-01-10T14:55:47;-0.10;99.90
22734;DHT22;11534;51.994;5.692;2024-01-10T14:58:13;-0.10;99.90
22734;DHT22;11534;51.994;5.692;2024-01-10T15:00:40;-0.20;99.90
22734;DHT22;11534;51.994;5.692;2024-01-10T15:03:09;-0.20;99.90
22734;DHT22;11534;51.994;5.692;2024-01-10T15:05:36;-0.20;99.90
22734;DHT22;11534;51.994;5.692;2024-01-10T15:08:02;-0.30;99.90
22734;DHT22;11534;51.994;5.692;2024-01-10T15:10:32;-0.30;99.90
22734;DHT22;11534;51.994;5.692;2024-01-10T15:12:57;-0.30;99.90
22734;DHT22;11534;51.994;5.692;2024-01-10T15:15:30;-0.30;99.90
22734;DHT22;11534;51.994;5.692;2024-01-10T15:17:55;-0.40;99.90
22734;DHT22;11534;51.994;5.692;2024-01-10T15:20:21;-0.40;99.90
22734;DHT22;11534;51.994;5.692;2024-01-10T15:22:47;-0.40;99.90
22734;DHT22;11534;51.994;5.692;2024-01-10T15:25:13;-0.40;99.90
22734;DHT22;11534;51.994;5.692;2024-01-10T15:27:39;-0.40;99.90
22734;DHT22;11534;51.994;5.692;2024-01-10T15:30:05;-0.40;99.90
22734;DHT22;11534;51.994;5.692;2024-01-10T15:32:31;-0.40;99.90
22734;DHT22;11534;51.994;5.692;2024-01-10T15:34:57;-0.50;99.90
22734;DHT22;11534;51.994;5.692;2024-01-10T15:37:23;-0.50;99.90
22734;DHT22;11534;51.994;5.692;2024-01-10T15:39:51;-0.50;99.90
22734;DHT22;11534;51.994;5.692;2024-01-10T15:42:16;-0.50;99.90
22734;DHT22;11534;51.994;5.692;2024-01-10T15:44:43;-0.60;99.90
22734;DHT22;11534;51.994;5.692;2024-01-10T15:47:09;-0.60;99.90
22734;DHT22;11534;51.994;5.692;2024-01-10T15:49:35;-0.60;99.90
22734;DHT22;11534;51.994;5.692;2024-01-10T15:52:01;-0.60;99.90